Durham, NC

8:07 PM EDT on June 03, 2015 (GMT -0400)
Brightleaf Glen | | Change Station
CLOSE
Current Station
Personal Weather Station
Location: Durham, NC
Elevation: 436 ft
Nearby Weather Stations

Elev 436 ft 35.95 °N, 78.83 °W | Updated 19 seconds ago

Overcast
Overcast
64.0 °F
Feels Like 64.0 °F
N
0.0
Wind Variable Wind from ESE
Gusts 0.0 mph

Today
High -- | Low -- °F
--% Chance of Precip.
Yesterday
High -- | Low -- °F
Precip. -- in
5:59 AM 8:27 PM
Full, 98% visible
Pressure 30.07 in
Visibility 2.0 miles
Clouds Overcast 500 ft
Dew Point 63 °F
Humidity 97%
Rainfall 0.04 in
Snow Depth Not available.
UV 0.0 out of 12
Pollen .80 out of 12
Air Quality Not available.
Flu Activity No Activity
METAR KRDU 032351Z 04007KT 2SM -DZ BR OVC005 18/17 A3008 RMK AO2 RAE06DZB06 SLP182 P0000 60002 T01830172 10194 20183 53009 $

More Conditions Fewer Conditions

Pressure 30.07 in
Visibility 2.0 miles
Clouds Overcast 500 ft
Dew Point 63 °F
Humidity 97%
Rainfall 0.04 in
Snow Depth Not available.
UV 0.0 out of 12
Pollen .80 out of 12
Air Quality Not available.
Flu Activity No Activity
METAR KRDU 032351Z 04007KT 2SM -DZ BR OVC005 18/17 A3008 RMK AO2 RAE06DZB06 SLP182 P0000 60002 T01830172 10194 20183 53009 $

More Conditions Fewer Conditions

10-Day Weather Forecast

×

Almanac

Astronomy

Jun. 03, 2015 Rise Set
Actual Time
Civil Twilight
Nautical Twilight
Astronomical Twilight
Moon
Length of Visible Light
Length of Day
Tomorrow will be .
, % of the Moon is Illuminated

Today's Extremes

State Highs State Lows

Community

WunderPhotos

Upload Photos

1,826,306 photos uploaded!

WunderBlogs® & News

Nearby

Air Quality

  Air Quality AQ Index Pollutant
Not available.

Snow Depth

Station Depth Elevation

Earthquake Activity

City Distance Mag. Time & Date
Minimum magnitude displayed is 2.5.

Coastal Water Temperatures

Place Temperature

Stations

Nearby Weather Stations

Station Location Temp. Windchill Dew Point Humidity Wind Precip. Elev Updated Type